Nearby METAR Reports

 

KEDC - Austin Exec, Texas, USA
Distance from station: SSE 10mi, 17km
Updated: Fri, 22-Jun-2018 2:15am CDT
Few Clouds
Few Clouds
 Wind from SSW
Wind: SSW 9 mph , 15 km/h
Temperature: 75°F , 24°C
Dew Point: 75°F , 24°C
Humidity: 100%
Barometer: 29.91 inHg , 1012.9 hPa
Clouds: Few Clouds
Visibility: 9 miles , 14 km
Cloud details: Few Clouds 1900 ft
Few Clouds 4000 ft
2018/06/22 07:15 KEDC 220715Z AUTO 21008KT 9SM FEW019 FEW040 24/24 A2991 RMK AO2
KGTU - Georgetown, Texas, USA
Distance from station: NNW 11mi, 17km
Updated: Fri, 22-Jun-2018 1:56am CDT
Clear
Clear
 Wind from SSW
Wind: SSW 10 mph , 17 km/h
Temperature: 79°F , 26°C
Dew Point: 73°F , 23°C
Humidity: 84%
Barometer: 29.92 inHg , 1013.2 hPa
Clouds: Clear
Visibility: 10 miles , 16 km
2018/06/22 06:56 KGTU 220656Z 20009KT 10SM CLR 26/23 A2992 RMK AO2 SLP122 T02610233
 
KATT - Austin/Mabry, Texas, USA
Distance from station: SSW 18mi, 30km
Updated: Fri, 22-Jun-2018 1:51am CDT
Clear
Clear
 Wind from varies
Wind: varies 5 mph , 7 km/h
Temperature: 79°F , 26°C
Dew Point: 73°F , 23°C
Humidity: 84%
Barometer: 29.92 inHg , 1013.2 hPa
Clouds: Clear
Visibility: 10 miles , 16 km
2018/06/22 06:51 KATT 220651Z AUTO VRB04KT 10SM CLR 26/23 A2992 RMK AO2 SLP117 T02560228
KRYW - Lago Vista, Texas, USA
Distance from station: W 22mi, 35km
Updated: Fri, 22-Jun-2018 2:15am CDT
Clear
Clear
 Wind from SSW
Wind: SSW 6 mph , 9 km/h
Temperature: 79°F , 26°C
Dew Point: 73°F , 23°C
Humidity: 84%
Barometer: 29.93 inHg , 1013.5 hPa
Clouds: Clear
Visibility: 10 miles , 16 km
2018/06/22 07:15 KRYW 220715Z AUTO 21005KT 10SM CLR 26/23 A2993 RMK AO2 T02560232
 
KAUS - Austin, Texas, USA
Distance from station: S 25mi, 41km
Updated: Fri, 22-Jun-2018 1:53am CDT
Partly cloudy
Partly cloudy
 Wind from S
Wind: S 7 mph , 11 km/h
Temperature: 77°F , 25°C
Dew Point: 73°F , 23°C
Humidity: 89%
Barometer: 29.90 inHg , 1012.5 hPa
Clouds: Partly cloudy
Visibility: 10 miles , 16 km
Cloud details: Partly cloudy 25000 ft
2018/06/22 06:53 KAUS 220653Z 19006KT 10SM SCT250 25/23 A2990 RMK AO2 SLP115 T02500233 $
KILE - Killeen Muni, Texas, USA
Distance from station: N 36mi, 58km
Updated: Fri, 22-Jun-2018 1:56am CDT
Clear
Clear
 Wind from SSW
Wind: SSW 10 mph , 17 km/h
Temperature: 79°F , 26°C
Dew Point: 73°F , 23°C
Humidity: 84%
Barometer: 29.89 inHg , 1012.2 hPa
Clouds: Clear
Visibility: 10 miles , 16 km
2018/06/22 06:56 KILE 220656Z AUTO 20009KT 10SM CLR 26/23 A2989 RMK AO2 SLP122 T02610233
 
KGRK - Gray/Ft Hood, Texas, USA
Distance from station: NNW 38mi, 62km
Updated: Fri, 22-Jun-2018 1:58am CDT
Clear
Clear
 Wind from S
Wind: S 10 mph , 17 km/h
Temperature: 79°F , 26°C
Dew Point: 72°F , 22°C
Humidity: 79%
Barometer: 29.89 inHg , 1012.2 hPa
Clouds: Clear
Visibility: 10 miles , 16 km
2018/06/22 06:58 KGRK 220658Z AUTO 18009KT 10SM CLR 26/22 A2989 RMK AO2 SLP109 T02590220
KBMQ - Burnet, Texas, USA
Distance from station: WNW 39mi, 64km
Updated: Fri, 22-Jun-2018 1:53am CDT
Clear
Clear
 Wind from S
Wind: S 8 mph , 13 km/h
Temperature: 79°F , 26°C
Dew Point: 72°F , 22°C
Humidity: 79%
Barometer: 29.94 inHg , 1013.9 hPa
Clouds: Clear
Visibility: 10 miles , 16 km
2018/06/22 06:53 KBMQ 220653Z AUTO 19007KT 10SM CLR 26/22 A2994 RMK AO2 SLP116 T02560217 $
 
KHLR - Ft Hood/Killeen, Texas, USA
Distance from station: N 41mi, 66km
Updated: Fri, 22-Jun-2018 1:58am CDT
Clear
Clear
 Wind from SSW
Wind: SSW 10 mph , 17 km/h
Temperature: 79°F , 26°C
Dew Point: 73°F , 23°C
Humidity: 84%
Barometer: 29.86 inHg , 1011.2 hPa
Clouds: Clear
Visibility: 10 miles , 16 km
2018/06/22 06:58 KHLR 220658Z AUTO 20009KT 10SM CLR 26/23 A2986 RMK AO2 SLP098 T02640225
KTPL - Temple/Miller, Texas, USA
Distance from station: NNE 42mi, 68km
Updated: Fri, 22-Jun-2018 1:51am CDT
Clear
Clear
 Wind from S
Wind: S 10 mph , 17 km/h
Temperature: 79°F , 26°C
Dew Point: 73°F , 23°C
Humidity: 84%
Barometer: 29.89 inHg , 1012.2 hPa
Clouds: Clear
Visibility: 10 miles , 16 km
2018/06/22 06:51 KTPL 220651Z AUTO 18009KT 10SM CLR 26/23 A2989 RMK AO2 SLP121 T02610233
 
KT35 - Cameron, Texas, USA
Distance from station: ENE 45mi, 72km
Updated: Fri, 22-Jun-2018 2:15am CDT
Clear
Clear
 Wind from SSW
Wind: SSW 9 mph , 15 km/h
Temperature: 79°F , 26°C
Dew Point: 73°F , 23°C
Humidity: 84%
Barometer: 29.88 inHg , 1011.9 hPa
Clouds: Clear
Visibility: 10 miles , 16 km
2018/06/22 07:15 KT35 220715Z AUTO 21008KT 10SM CLR 26/23 A2988 RMK AO2 T02560232
KDZB - Horseshoe Bay, Texas, USA
Distance from station: W 45mi, 73km
Updated: Fri, 22-Jun-2018 2:15am CDT
Clear
Clear
 Wind from S
Wind: S 7 mph , 11 km/h
Temperature: 79°F , 26°C
Dew Point: 72°F , 22°C
Humidity: 79%
Barometer: 29.91 inHg , 1012.9 hPa
Clouds: Clear
Visibility: 10 miles , 16 km
2018/06/22 07:15 KDZB 220715Z AUTO 19006KT 10SM CLR 26/22 A2991 RMK AO2 T02550216
 
KGYB - Giddings-Lee, Texas, USA
Distance from station: SE 45mi, 73km
Updated: Fri, 22-Jun-2018 2:15am CDT
Clear
Clear
 Wind from SSW
Wind: SSW 5 mph , 7 km/h
Temperature: 73°F , 23°C
Dew Point: 72°F , 22°C
Humidity: 94%
Barometer: 29.91 inHg , 1012.9 hPa
Clouds: Clear
Visibility: 7 miles , 11 km
2018/06/22 07:15 KGYB 220715Z AUTO 20004KT 7SM CLR 23/22 A2991 RMK AO2 T02310220
KHYI - San Marcos, Texas, USA
Distance from station: SSW 48mi, 78km
Updated: Fri, 22-Jun-2018 1:56am CDT
Clear
Clear
 Wind from SSW
Wind: SSW 6 mph , 9 km/h
Temperature: 75°F , 24°C
Dew Point: 73°F , 23°C
Humidity: 94%
Barometer: 29.93 inHg , 1013.5 hPa
Clouds: Clear
Visibility: 10 miles , 16 km
2018/06/22 06:56 KHYI 220656Z AUTO 20005KT 10SM CLR 24/23 A2993 RMK AO2 SLP124 T02390228 $
 
KLZZ - Lampasas, Texas, USA
Distance from station: NW 52mi, 84km
Updated: Fri, 22-Jun-2018 2:15am CDT
Clear
Clear
 Wind from SW
Wind: SW 5 mph , 7 km/h
Temperature: 77°F , 25°C
Dew Point: 72°F , 22°C
Humidity: 83%
Barometer: 29.89 inHg , 1012.2 hPa
Clouds: Clear
Visibility: 10 miles , 16 km
2018/06/22 07:15 KLZZ 220715Z AUTO 22004KT 10SM CLR 25/22 A2989 RMK AO2 T02530217
KRWV - Caldwell, Texas, USA
Distance from station: E 54mi, 87km
Updated: Fri, 22-Jun-2018 2:15am CDT
Clear
Clear
 Wind from SSW
Wind: SSW 7 mph , 11 km/h
Temperature: 77°F , 25°C
Dew Point: 75°F , 24°C
Humidity: 94%
Barometer: 29.90 inHg , 1012.5 hPa
Clouds: Clear
Visibility: 10 miles , 16 km
2018/06/22 07:15 KRWV 220715Z AUTO 20006KT 10SM CLR 25/24 A2990 RMK AO2 T02480235
 
K3T5 - La Grange, Texas, USA
Distance from station: SE 59mi, 95km
Updated: Fri, 22-Jun-2018 2:15am CDT
Clear
Clear
 Wind from S
Wind: S 3 mph , 6 km/h
Temperature: 77°F , 25°C
Dew Point: 77°F , 25°C
Humidity: 100%
Barometer: 29.89 inHg , 1012.2 hPa
Clouds: Clear
Visibility: 7 miles , 11 km
2018/06/22 07:15 K3T5 220715Z AUTO 19003KT 7SM CLR 25/25 A2989 RMK AO2 T02500245
KGOP - Gatesville, Texas, USA
Distance from station: N 61mi, 99km
Updated: Fri, 22-Jun-2018 2:15am CDT
Clear
Clear
 Wind from S
Wind: S 10 mph , 17 km/h
Temperature: 81°F , 27°C
Heat Index: 85°F , 29°C
Dew Point: 72°F , 22°C
Humidity: 74%
Barometer: 29.89 inHg , 1012.2 hPa
Clouds: Clear
Visibility: 10 miles , 16 km
2018/06/22 07:15 KGOP 220715Z AUTO 19009KT 10SM CLR 27/22 A2989 RMK AO2
 
KLHB - Hearne Muni, Texas, USA
Distance from station: ENE 63mi, 101km
Updated: Fri, 22-Jun-2018 2:15am CDT
Clear
Clear
 Wind from S
Wind: S 3 mph , 6 km/h
Temperature: 77°F , 25°C
Dew Point: 75°F , 24°C
Humidity: 94%
Barometer: 29.89 inHg , 1012.2 hPa
Clouds: Clear
Visibility: 10 miles , 16 km
2018/06/22 07:15 KLHB 220715Z AUTO 17003KT 10SM CLR 25/24 A2989 RMK AO2 T02500240
KBAZ - New Braunfels, Texas, USA
Distance from station: SSW 63mi, 102km
Updated: Fri, 22-Jun-2018 1:51am CDT
Clear
Clear
 Wind from SSW
Wind: SSW 6 mph , 9 km/h
Temperature: 72°F , 22°C
Dew Point: 72°F , 22°C
Humidity: 100%
Barometer: 29.92 inHg , 1013.2 hPa
Clouds: Clear
Visibility: 9 miles , 14 km
2018/06/22 06:51 KBAZ 220651Z AUTO 21005KT 9SM CLR 22/22 A2992 RMK AO2 SLP121 T02220217